sensor_id;sensor_type;location;lat;lon;timestamp;P1;durP1;ratioP1;P2;durP2;ratioP2
70205;SDS011;57593;55.896;37.396;2022-12-07T00:00:01;5.67;;;2.60;;
70205;SDS011;57593;55.896;37.396;2022-12-07T00:00:31;6.87;;;3.27;;
70205;SDS011;57593;55.896;37.396;2022-12-07T00:01:06;4.90;;;2.50;;
70205;SDS011;57593;55.896;37.396;2022-12-07T00:01:41;4.80;;;2.40;;
70205;SDS011;57593;55.896;37.396;2022-12-07T00:02:13;6.25;;;3.45;;
70205;SDS011;57593;55.896;37.396;2022-12-07T00:02:44;7.90;;;3.73;;
70205;SDS011;57593;55.896;37.396;2022-12-07T00:03:14;8.87;;;2.63;;
70205;SDS011;57593;55.896;37.396;2022-12-07T00:03:45;4.17;;;2.43;;
70205;SDS011;57593;55.896;37.396;2022-12-07T00:04:17;8.35;;;3.03;;
70205;SDS011;57593;55.896;37.396;2022-12-07T00:04:49;6.78;;;2.60;;
70205;SDS011;57593;55.896;37.396;2022-12-07T00:05:19;6.47;;;2.63;;
70205;SDS011;57593;55.896;37.396;2022-12-07T00:05:50;5.53;;;2.67;;
70205;SDS011;57593;55.896;37.396;2022-12-07T00:06:21;7.27;;;2.80;;
70205;SDS011;57593;55.896;37.396;2022-12-07T00:06:52;5.43;;;2.80;;
70205;SDS011;57593;55.896;37.396;2022-12-07T00:07:23;5.25;;;2.65;;
70205;SDS011;57593;55.896;37.396;2022-12-07T00:07:53;6.20;;;3.03;;
70205;SDS011;57593;55.896;37.396;2022-12-07T00:08:24;6.50;;;2.83;;
70205;SDS011;57593;55.896;37.396;2022-12-07T00:08:55;6.03;;;2.77;;
70205;SDS011;57593;55.896;37.396;2022-12-07T00:09:25;6.33;;;2.33;;
70205;SDS011;57593;55.896;37.396;2022-12-07T00:09:56;6.00;;;2.77;;
70205;SDS011;57593;55.896;37.396;2022-12-07T00:10:26;6.87;;;3.10;;
70205;SDS011;57593;55.896;37.396;2022-12-07T00:11:01;7.43;;;3.30;;
70205;SDS011;57593;55.896;37.396;2022-12-07T00:11:42;5.70;;;2.72;;
70205;SDS011;57593;55.896;37.396;2022-12-07T00:12:13;5.55;;;2.67;;
70205;SDS011;57593;55.896;37.396;2022-12-07T00:12:43;5.27;;;2.60;;
70205;SDS011;57593;55.896;37.396;2022-12-07T00:13:14;4.83;;;2.60;;
70205;SDS011;57593;55.896;37.396;2022-12-07T00:13:45;4.73;;;2.80;;
70205;SDS011;57593;55.896;37.396;2022-12-07T00:14:17;5.30;;;2.63;;
70205;SDS011;57593;55.896;37.396;2022-12-07T00:14:48;5.30;;;2.72;;
70205;SDS011;57593;55.896;37.396;2022-12-07T00:15:19;5.70;;;2.50;;
70205;SDS011;57593;55.896;37.396;2022-12-07T00:15:49;7.53;;;3.90;;
70205;SDS011;57593;55.896;37.396;2022-12-07T00:16:20;7.03;;;2.73;;
70205;SDS011;57593;55.896;37.396;2022-12-07T00:16:53;7.65;;;3.15;;
70205;SDS011;57593;55.896;37.396;2022-12-07T00:17:23;5.23;;;2.93;;
70205;SDS011;57593;55.896;37.396;2022-12-07T00:17:54;7.67;;;2.80;;
70205;SDS011;57593;55.896;37.396;2022-12-07T00:18:24;8.77;;;3.87;;
70205;SDS011;57593;55.896;37.396;2022-12-07T00:18:55;5.17;;;3.00;;
70205;SDS011;57593;55.896;37.396;2022-12-07T00:19:26;6.50;;;3.00;;
70205;SDS011;57593;55.896;37.396;2022-12-07T00:19:57;4.33;;;2.53;;
70205;SDS011;57593;55.896;37.396;2022-12-07T00:20:27;9.13;;;3.10;;
70205;SDS011;57593;55.896;37.396;2022-12-07T00:21:02;6.27;;;2.70;;
70205;SDS011;57593;55.896;37.396;2022-12-07T00:21:37;6.68;;;3.30;;
70205;SDS011;57593;55.896;37.396;2022-12-07T00:22:08;4.90;;;2.53;;
70205;SDS011;57593;55.896;37.396;2022-12-07T00:22:38;6.17;;;2.87;;
70205;SDS011;57593;55.896;37.396;2022-12-07T00:23:09;4.43;;;2.73;;
70205;SDS011;57593;55.896;37.396;2022-12-07T00:23:40;6.97;;;3.10;;
70205;SDS011;57593;55.896;37.396;2022-12-07T00:24:11;5.65;;;2.67;;
70205;SDS011;57593;55.896;37.396;2022-12-07T00:24:42;6.00;;;2.67;;
70205;SDS011;57593;55.896;37.396;2022-12-07T00:25:13;6.27;;;2.47;;
70205;SDS011;57593;55.896;37.396;2022-12-07T00:25:44;5.80;;;2.73;;
70205;SDS011;57593;55.896;37.396;2022-12-07T00:26:15;6.90;;;3.20;;
70205;SDS011;57593;55.896;37.396;2022-12-07T00:26:49;7.13;;;3.00;;
70205;SDS011;57593;55.896;37.396;2022-12-07T00:27:19;6.47;;;3.27;;
70205;SDS011;57593;55.896;37.396;2022-12-07T00:27:50;7.97;;;2.87;;
70205;SDS011;57593;55.896;37.396;2022-12-07T00:28:22;6.88;;;3.33;;
70205;SDS011;57593;55.896;37.396;2022-12-07T00:28:54;6.63;;;3.30;;
70205;SDS011;57593;55.896;37.396;2022-12-07T00:29:26;8.00;;;3.20;;
70205;SDS011;57593;55.896;37.396;2022-12-07T00:29:56;5.37;;;2.70;;
70205;SDS011;57593;55.896;37.396;2022-12-07T00:30:27;7.77;;;2.90;;
70205;SDS011;57593;55.896;37.396;2022-12-07T00:31:02;4.67;;;2.83;;
70205;SDS011;57593;55.896;37.396;2022-12-07T00:31:42;7.05;;;2.83;;
70205;SDS011;57593;55.896;37.396;2022-12-07T00:32:13;5.93;;;2.70;;
70205;SDS011;57593;55.896;37.396;2022-12-07T00:32:43;5.80;;;3.10;;
70205;SDS011;57593;55.896;37.396;2022-12-07T00:33:14;7.47;;;3.10;;
70205;SDS011;57593;55.896;37.396;2022-12-07T00:33:45;5.77;;;2.93;;
70205;SDS011;57593;55.896;37.396;2022-12-07T00:34:17;7.13;;;3.10;;
70205;SDS011;57593;55.896;37.396;2022-12-07T00:34:49;6.78;;;3.03;;
70205;SDS011;57593;55.896;37.396;2022-12-07T00:35:20;7.27;;;2.43;;
70205;SDS011;57593;55.896;37.396;2022-12-07T00:35:58;7.60;;;3.07;;
70205;SDS011;57593;55.896;37.396;2022-12-07T00:36:29;7.97;;;3.20;;
70205;SDS011;57593;55.896;37.396;2022-12-07T00:36:59;5.73;;;3.10;;
70205;SDS011;57593;55.896;37.396;2022-12-07T00:37:30;5.03;;;2.80;;
70205;SDS011;57593;55.896;37.396;2022-12-07T00:38:01;6.77;;;3.13;;
70205;SDS011;57593;55.896;37.396;2022-12-07T00:38:32;7.30;;;2.90;;
70205;SDS011;57593;55.896;37.396;2022-12-07T00:39:03;8.65;;;3.00;;
70205;SDS011;57593;55.896;37.396;2022-12-07T00:39:34;6.70;;;2.90;;
70205;SDS011;57593;55.896;37.396;2022-12-07T00:40:05;5.47;;;3.27;;
70205;SDS011;57593;55.896;37.396;2022-12-07T00:40:36;5.03;;;2.35;;
70205;SDS011;57593;55.896;37.396;2022-12-07T00:41:09;7.90;;;2.77;;
70205;SDS011;57593;55.896;37.396;2022-12-07T00:41:41;5.70;;;2.90;;
70205;SDS011;57593;55.896;37.396;2022-12-07T00:42:12;4.90;;;2.50;;
70205;SDS011;57593;55.896;37.396;2022-12-07T00:42:43;7.33;;;2.40;;
70205;SDS011;57593;55.896;37.396;2022-12-07T00:43:13;5.77;;;2.77;;
70205;SDS011;57593;55.896;37.396;2022-12-07T00:43:44;10.67;;;3.47;;
70205;SDS011;57593;55.896;37.396;2022-12-07T00:44:16;5.82;;;2.58;;
70205;SDS011;57593;55.896;37.396;2022-12-07T00:44:47;6.30;;;2.80;;
70205;SDS011;57593;55.896;37.396;2022-12-07T00:45:17;6.00;;;3.17;;
70205;SDS011;57593;55.896;37.396;2022-12-07T00:45:48;5.80;;;3.07;;
70205;SDS011;57593;55.896;37.396;2022-12-07T00:46:19;5.90;;;3.30;;
70205;SDS011;57593;55.896;37.396;2022-12-07T00:46:50;6.07;;;3.25;;
70205;SDS011;57593;55.896;37.396;2022-12-07T00:47:21;6.70;;;3.27;;
70205;SDS011;57593;55.896;37.396;2022-12-07T00:47:52;8.47;;;3.30;;
70205;SDS011;57593;55.896;37.396;2022-12-07T00:48:22;8.33;;;2.97;;
70205;SDS011;57593;55.896;37.396;2022-12-07T00:48:54;5.43;;;2.70;;
70205;SDS011;57593;55.896;37.396;2022-12-07T00:49:25;6.18;;;2.63;;
70205;SDS011;57593;55.896;37.396;2022-12-07T00:49:55;6.97;;;3.53;;
70205;SDS011;57593;55.896;37.396;2022-12-07T00:50:26;4.47;;;2.60;;
70205;SDS011;57593;55.896;37.396;2022-12-07T00:50:57;8.00;;;3.00;;
70205;SDS011;57593;55.896;37.396;2022-12-07T00:51:28;8.60;;;3.17;;
70205;SDS011;57593;55.896;37.396;2022-12-07T00:51:58;7.60;;;3.20;;
70205;SDS011;57593;55.896;37.396;2022-12-07T00:52:29;5.73;;;3.33;;
70205;SDS011;57593;55.896;37.396;2022-12-07T00:53:00;8.33;;;3.17;;
70205;SDS011;57593;55.896;37.396;2022-12-07T00:53:30;8.77;;;3.63;;
70205;SDS011;57593;55.896;37.396;2022-12-07T00:54:03;5.55;;;3.00;;
70205;SDS011;57593;55.896;37.396;2022-12-07T00:54:34;5.37;;;3.17;;
70205;SDS011;57593;55.896;37.396;2022-12-07T00:55:05;6.63;;;3.13;;
70205;SDS011;57593;55.896;37.396;2022-12-07T00:55:36;7.05;;;3.55;;
70205;SDS011;57593;55.896;37.396;2022-12-07T00:56:14;6.97;;;2.97;;
70205;SDS011;57593;55.896;37.396;2022-12-07T00:56:46;6.04;;;2.64;;
70205;SDS011;57593;55.896;37.396;2022-12-07T00:57:17;7.87;;;3.40;;
70205;SDS011;57593;55.896;37.396;2022-12-07T00:57:47;5.73;;;3.17;;
70205;SDS011;57593;55.896;37.396;2022-12-07T00:58:18;6.17;;;3.27;;
70205;SDS011;57593;55.896;37.396;2022-12-07T00:58:56;5.97;;;3.33;;
70205;SDS011;57593;55.896;37.396;2022-12-07T00:59:31;7.93;;;3.25;;
70205;SDS011;57593;55.896;37.396;2022-12-07T01:00:02;5.63;;;2.63;;
70205;SDS011;57593;55.896;37.396;2022-12-07T01:00:33;7.77;;;3.03;;
70205;SDS011;57593;55.896;37.396;2022-12-07T01:01:06;8.13;;;3.58;;
70205;SDS011;57593;55.896;37.396;2022-12-07T01:01:39;6.45;;;3.20;;
70205;SDS011;57593;55.896;37.396;2022-12-07T01:02:10;8.27;;;3.53;;
70205;SDS011;57593;55.896;37.396;2022-12-07T01:02:40;6.13;;;3.27;;
70205;SDS011;57593;55.896;37.396;2022-12-07T01:03:12;7.53;;;2.73;;
70205;SDS011;57593;55.896;37.396;2022-12-07T01:03:43;5.25;;;3.00;;
70205;SDS011;57593;55.896;37.396;2022-12-07T01:04:14;6.10;;;3.10;;
70205;SDS011;57593;55.896;37.396;2022-12-07T01:04:45;5.87;;;2.90;;
70205;SDS011;57593;55.896;37.396;2022-12-07T01:05:15;9.40;;;3.63;;
70205;SDS011;57593;55.896;37.396;2022-12-07T01:05:53;7.50;;;3.47;;
70205;SDS011;57593;55.896;37.396;2022-12-07T01:06:25;7.20;;;3.42;;
70205;SDS011;57593;55.896;37.396;2022-12-07T01:06:55;6.43;;;3.23;;
70205;SDS011;57593;55.896;37.396;2022-12-07T01:07:26;8.23;;;3.80;;
70205;SDS011;57593;55.896;37.396;2022-12-07T01:07:57;8.10;;;3.17;;
70205;SDS011;57593;55.896;37.396;2022-12-07T01:08:28;6.70;;;3.30;;
70205;SDS011;57593;55.896;37.396;2022-12-07T01:08:59;6.90;;;3.03;;
70205;SDS011;57593;55.896;37.396;2022-12-07T01:09:30;8.90;;;3.35;;
70205;SDS011;57593;55.896;37.396;2022-12-07T01:10:01;7.90;;;3.73;;
70205;SDS011;57593;55.896;37.396;2022-12-07T01:10:32;5.67;;;3.20;;
70205;SDS011;57593;55.896;37.396;2022-12-07T01:11:04;9.05;;;3.40;;
70205;SDS011;57593;55.896;37.396;2022-12-07T01:11:36;6.63;;;3.35;;
70205;SDS011;57593;55.896;37.396;2022-12-07T01:12:07;6.73;;;3.27;;
70205;SDS011;57593;55.896;37.396;2022-12-07T01:12:38;6.13;;;3.40;;
70205;SDS011;57593;55.896;37.396;2022-12-07T01:13:09;7.43;;;3.28;;
70205;SDS011;57593;55.896;37.396;2022-12-07T01:13:40;6.40;;;3.30;;
70205;SDS011;57593;55.896;37.396;2022-12-07T01:14:11;6.88;;;3.53;;
70205;SDS011;57593;55.896;37.396;2022-12-07T01:14:42;9.93;;;3.43;;
70205;SDS011;57593;55.896;37.396;2022-12-07T01:15:13;7.73;;;3.10;;
70205;SDS011;57593;55.896;37.396;2022-12-07T01:15:44;5.97;;;2.93;;
70205;SDS011;57593;55.896;37.396;2022-12-07T01:16:15;9.10;;;3.53;;
70205;SDS011;57593;55.896;37.396;2022-12-07T01:16:46;5.95;;;3.33;;
70205;SDS011;57593;55.896;37.396;2022-12-07T01:17:17;7.40;;;3.67;;
70205;SDS011;57593;55.896;37.396;2022-12-07T01:17:47;7.20;;;3.20;;
70205;SDS011;57593;55.896;37.396;2022-12-07T01:18:18;5.83;;;2.97;;
70205;SDS011;57593;55.896;37.396;2022-12-07T01:18:49;6.03;;;3.10;;
70205;SDS011;57593;55.896;37.396;2022-12-07T01:19:21;7.13;;;3.17;;
70205;SDS011;57593;55.896;37.396;2022-12-07T01:19:52;6.37;;;3.50;;
70205;SDS011;57593;55.896;37.396;2022-12-07T01:20:22;6.37;;;3.20;;
70205;SDS011;57593;55.896;37.396;2022-12-07T01:21:03;8.63;;;3.60;;
70205;SDS011;57593;55.896;37.396;2022-12-07T01:21:36;8.52;;;3.17;;
70205;SDS011;57593;55.896;37.396;2022-12-07T01:22:08;6.80;;;3.05;;
70205;SDS011;57593;55.896;37.396;2022-12-07T01:22:39;7.53;;;3.43;;
70205;SDS011;57593;55.896;37.396;2022-12-07T01:23:10;7.28;;;3.47;;
70205;SDS011;57593;55.896;37.396;2022-12-07T01:23:41;6.70;;;3.33;;
70205;SDS011;57593;55.896;37.396;2022-12-07T01:24:12;6.10;;;3.30;;
70205;SDS011;57593;55.896;37.396;2022-12-07T01:24:42;4.97;;;3.20;;
70205;SDS011;57593;55.896;37.396;2022-12-07T01:25:13;10.50;;;3.57;;
70205;SDS011;57593;55.896;37.396;2022-12-07T01:25:44;6.93;;;2.80;;
70205;SDS011;57593;55.896;37.396;2022-12-07T01:26:16;7.50;;;3.67;;
70205;SDS011;57593;55.896;37.396;2022-12-07T01:26:49;9.63;;;3.60;;
70205;SDS011;57593;55.896;37.396;2022-12-07T01:27:20;7.07;;;3.30;;
70205;SDS011;57593;55.896;37.396;2022-12-07T01:27:50;7.20;;;3.30;;
70205;SDS011;57593;55.896;37.396;2022-12-07T01:28:21;6.43;;;3.23;;
70205;SDS011;57593;55.896;37.396;2022-12-07T01:28:52;8.90;;;3.07;;
70205;SDS011;57593;55.896;37.396;2022-12-07T01:29:25;7.28;;;3.42;;
70205;SDS011;57593;55.896;37.396;2022-12-07T01:29:55;8.83;;;3.23;;
70205;SDS011;57593;55.896;37.396;2022-12-07T01:30:26;6.60;;;3.00;;
70205;SDS011;57593;55.896;37.396;2022-12-07T01:31:00;8.13;;;3.00;;
70205;SDS011;57593;55.896;37.396;2022-12-07T01:31:31;6.82;;;3.50;;
70205;SDS011;57593;55.896;37.396;2022-12-07T01:32:02;8.30;;;3.30;;
70205;SDS011;57593;55.896;37.396;2022-12-07T01:32:33;5.47;;;3.07;;
70205;SDS011;57593;55.896;37.396;2022-12-07T01:33:04;7.03;;;3.42;;
70205;SDS011;57593;55.896;37.396;2022-12-07T01:33:35;5.50;;;3.17;;
70205;SDS011;57593;55.896;37.396;2022-12-07T01:34:07;6.00;;;3.75;;
70205;SDS011;57593;55.896;37.396;2022-12-07T01:34:38;7.35;;;3.13;;
70205;SDS011;57593;55.896;37.396;2022-12-07T01:35:09;6.93;;;3.00;;
70205;SDS011;57593;55.896;37.396;2022-12-07T01:35:39;6.87;;;3.10;;
70205;SDS011;57593;55.896;37.396;2022-12-07T01:36:14;7.37;;;3.53;;
70205;SDS011;57593;55.896;37.396;2022-12-07T01:36:47;10.40;;;3.78;;
70205;SDS011;57593;55.896;37.396;2022-12-07T01:37:17;9.83;;;3.37;;
70205;SDS011;57593;55.896;37.396;2022-12-07T01:37:48;6.53;;;2.90;;
70205;SDS011;57593;55.896;37.396;2022-12-07T01:38:18;7.97;;;4.20;;
70205;SDS011;57593;55.896;37.396;2022-12-07T01:38:50;5.03;;;3.13;;
70205;SDS011;57593;55.896;37.396;2022-12-07T01:39:26;6.68;;;3.50;;
70205;SDS011;57593;55.896;37.396;2022-12-07T01:39:57;8.73;;;3.93;;
70205;SDS011;57593;55.896;37.396;2022-12-07T01:40:27;5.97;;;3.43;;
70205;SDS011;57593;55.896;37.396;2022-12-07T01:40:58;7.80;;;3.20;;
70205;SDS011;57593;55.896;37.396;2022-12-07T01:41:31;5.63;;;3.13;;
70205;SDS011;57593;55.896;37.396;2022-12-07T01:42:04;12.75;;;4.20;;
70205;SDS011;57593;55.896;37.396;2022-12-07T01:42:35;5.23;;;3.13;;
70205;SDS011;57593;55.896;37.396;2022-12-07T01:43:18;6.60;;;3.40;;
70205;SDS011;57593;55.896;37.396;2022-12-07T01:45:48;5.75;;;3.50;;
70205;SDS011;57593;55.896;37.396;2022-12-07T01:46:18;5.60;;;3.00;;
70205;SDS011;57593;55.896;37.396;2022-12-07T01:46:53;7.80;;;3.57;;
70205;SDS011;57593;55.896;37.396;2022-12-07T01:47:26;12.00;;;3.60;;
70205;SDS011;57593;55.896;37.396;2022-12-07T01:47:57;8.45;;;3.60;;
70205;SDS011;57593;55.896;37.396;2022-12-07T01:48:32;8.05;;;3.17;;
70205;SDS011;57593;55.896;37.396;2022-12-07T01:49:08;6.85;;;3.75;;
70205;SDS011;57593;55.896;37.396;2022-12-07T01:49:45;9.27;;;3.65;;
70205;SDS011;57593;55.896;37.396;2022-12-07T01:50:18;7.20;;;3.47;;
70205;SDS011;57593;55.896;37.396;2022-12-07T01:50:51;7.68;;;3.78;;
70205;SDS011;57593;55.896;37.396;2022-12-07T01:51:25;6.68;;;3.53;;
70205;SDS011;57593;55.896;37.396;2022-12-07T01:52:18;6.57;;;3.35;;
70205;SDS011;57593;55.896;37.396;2022-12-07T01:52:51;5.53;;;3.33;;
70205;SDS011;57593;55.896;37.396;2022-12-07T01:53:26;7.05;;;3.13;;
70205;SDS011;57593;55.896;37.396;2022-12-07T01:54:00;7.60;;;3.28;;
70205;SDS011;57593;55.896;37.396;2022-12-07T01:54:32;10.80;;;3.42;;
70205;SDS011;57593;55.896;37.396;2022-12-07T01:55:04;6.63;;;3.60;;
70205;SDS011;57593;55.896;37.396;2022-12-07T01:55:38;7.65;;;3.75;;
70205;SDS011;57593;55.896;37.396;2022-12-07T01:56:14;7.95;;;3.95;;
70205;SDS011;57593;55.896;37.396;2022-12-07T01:56:51;6.32;;;3.10;;
70205;SDS011;57593;55.896;37.396;2022-12-07T01:57:23;7.85;;;3.33;;
70205;SDS011;57593;55.896;37.396;2022-12-07T01:57:54;9.00;;;3.97;;
70205;SDS011;57593;55.896;37.396;2022-12-07T01:58:26;8.73;;;3.80;;
70205;SDS011;57593;55.896;37.396;2022-12-07T01:58:57;6.07;;;3.60;;
70205;SDS011;57593;55.896;37.396;2022-12-07T01:59:30;4.90;;;2.85;;
70205;SDS011;57593;55.896;37.396;2022-12-07T02:00:01;8.37;;;3.70;;
70205;SDS011;57593;55.896;37.396;2022-12-07T02:00:43;7.10;;;3.50;;
70205;SDS011;57593;55.896;37.396;2022-12-07T02:01:13;6.63;;;3.87;;
70205;SDS011;57593;55.896;37.396;2022-12-07T02:01:44;8.67;;;4.10;;
70205;SDS011;57593;55.896;37.396;2022-12-07T02:02:18;6.87;;;3.53;;
70205;SDS011;57593;55.896;37.396;2022-12-07T02:03:54;6.50;;;3.17;;
70205;SDS011;57593;55.896;37.396;2022-12-07T02:04:25;9.60;;;3.55;;
70205;SDS011;57593;55.896;37.396;2022-12-07T02:04:56;6.23;;;3.67;;
70205;SDS011;57593;55.896;37.396;2022-12-07T02:05:29;6.00;;;3.40;;
70205;SDS011;57593;55.896;37.396;2022-12-07T02:06:01;9.23;;;3.50;;
70205;SDS011;57593;55.896;37.396;2022-12-07T02:06:32;7.32;;;3.33;;
70205;SDS011;57593;55.896;37.396;2022-12-07T02:07:05;7.03;;;3.67;;
70205;SDS011;57593;55.896;37.396;2022-12-07T02:07:36;7.53;;;3.72;;
70205;SDS011;57593;55.896;37.396;2022-12-07T02:08:08;7.20;;;3.58;;
70205;SDS011;57593;55.896;37.396;2022-12-07T02:08:42;9.18;;;3.60;;
70205;SDS011;57593;55.896;37.396;2022-12-07T02:09:13;9.32;;;4.10;;
70205;SDS011;57593;55.896;37.396;2022-12-07T02:09:44;8.00;;;3.87;;
70205;SDS011;57593;55.896;37.396;2022-12-07T02:10:21;7.47;;;3.90;;
70205;SDS011;57593;55.896;37.396;2022-12-07T02:10:57;8.70;;;3.83;;
70205;SDS011;57593;55.896;37.396;2022-12-07T02:11:29;7.53;;;3.70;;
70205;SDS011;57593;55.896;37.396;2022-12-07T02:12:00;8.13;;;3.90;;
70205;SDS011;57593;55.896;37.396;2022-12-07T02:12:31;8.48;;;3.85;;
70205;SDS011;57593;55.896;37.396;2022-12-07T02:13:40;8.65;;;3.88;;
70205;SDS011;57593;55.896;37.396;2022-12-07T02:14:12;9.13;;;4.18;;
70205;SDS011;57593;55.896;37.396;2022-12-07T02:14:43;8.67;;;3.87;;
70205;SDS011;57593;55.896;37.396;2022-12-07T02:15:14;6.00;;;3.40;;
70205;SDS011;57593;55.896;37.396;2022-12-07T02:18:16;7.43;;;3.70;;
70205;SDS011;57593;55.896;37.396;2022-12-07T02:21:45;8.70;;;3.45;;
70205;SDS011;57593;55.896;37.396;2022-12-07T02:24:54;7.57;;;3.00;;
70205;SDS011;57593;55.896;37.396;2022-12-07T02:27:46;9.23;;;3.22;;
70205;SDS011;57593;55.896;37.396;2022-12-07T02:29:33;8.27;;;3.75;;
70205;SDS011;57593;55.896;37.396;2022-12-07T02:30:30;8.43;;;3.25;;
70205;SDS011;57593;55.896;37.396;2022-12-07T02:31:12;8.13;;;3.67;;
70205;SDS011;57593;55.896;37.396;2022-12-07T02:33:03;10.13;;;3.38;;
70205;SDS011;57593;55.896;37.396;2022-12-07T02:33:41;6.47;;;3.65;;
70205;SDS011;57593;55.896;37.396;2022-12-07T02:34:22;10.88;;;3.60;;
70205;SDS011;57593;55.896;37.396;2022-12-07T02:36:27;9.18;;;3.47;;
70205;SDS011;57593;55.896;37.396;2022-12-07T02:37:01;8.77;;;4.10;;
70205;SDS011;57593;55.896;37.396;2022-12-07T02:38:38;8.32;;;3.83;;
70205;SDS011;57593;55.896;37.396;2022-12-07T02:39:15;8.30;;;3.78;;
70205;SDS011;57593;55.896;37.396;2022-12-07T02:39:57;7.03;;;3.47;;
70205;SDS011;57593;55.896;37.396;2022-12-07T02:40:43;7.75;;;3.60;;
70205;SDS011;57593;55.896;37.396;2022-12-07T02:41:22;9.48;;;4.18;;
70205;SDS011;57593;55.896;37.396;2022-12-07T02:42:19;9.48;;;4.00;;
70205;SDS011;57593;55.896;37.396;2022-12-07T02:43:01;9.02;;;4.20;;
70205;SDS011;57593;55.896;37.396;2022-12-07T02:43:38;8.13;;;3.78;;
70205;SDS011;57593;55.896;37.396;2022-12-07T02:44:16;6.85;;;3.78;;
70205;SDS011;57593;55.896;37.396;2022-12-07T02:44:50;7.20;;;3.75;;
70205;SDS011;57593;55.896;37.396;2022-12-07T02:45:22;7.65;;;4.13;;
70205;SDS011;57593;55.896;37.396;2022-12-07T02:46:03;8.25;;;4.50;;
70205;SDS011;57593;55.896;37.396;2022-12-07T02:46:43;7.65;;;3.67;;
70205;SDS011;57593;55.896;37.396;2022-12-07T02:47:17;8.75;;;4.10;;
70205;SDS011;57593;55.896;37.396;2022-12-07T02:47:51;9.60;;;4.28;;
70205;SDS011;57593;55.896;37.396;2022-12-07T02:48:26;7.50;;;4.20;;
70205;SDS011;57593;55.896;37.396;2022-12-07T02:48:57;8.77;;;3.70;;
70205;SDS011;57593;55.896;37.396;2022-12-07T02:49:32;9.48;;;4.30;;
70205;SDS011;57593;55.896;37.396;2022-12-07T02:50:03;10.37;;;4.27;;
70205;SDS011;57593;55.896;37.396;2022-12-07T02:50:36;12.02;;;4.85;;
70205;SDS011;57593;55.896;37.396;2022-12-07T02:51:07;8.83;;;4.20;;
70205;SDS011;57593;55.896;37.396;2022-12-07T02:51:41;9.40;;;4.53;;
70205;SDS011;57593;55.896;37.396;2022-12-07T02:52:13;8.80;;;4.35;;
70205;SDS011;57593;55.896;37.396;2022-12-07T02:52:44;13.70;;;4.30;;
70205;SDS011;57593;55.896;37.396;2022-12-07T02:53:35;7.70;;;4.07;;
70205;SDS011;57593;55.896;37.396;2022-12-07T02:54:17;8.43;;;4.28;;
70205;SDS011;57593;55.896;37.396;2022-12-07T02:54:48;8.05;;;3.80;;
70205;SDS011;57593;55.896;37.396;2022-12-07T02:55:20;10.00;;;4.17;;
70205;SDS011;57593;55.896;37.396;2022-12-07T02:55:56;8.45;;;4.20;;
70205;SDS011;57593;55.896;37.396;2022-12-07T03:00:44;9.38;;;3.92;;
70205;SDS011;57593;55.896;37.396;2022-12-07T03:01:30;7.30;;;3.33;;
70205;SDS011;57593;55.896;37.396;2022-12-07T03:03:06;9.88;;;4.07;;
70205;SDS011;57593;55.896;37.396;2022-12-07T03:03:41;8.00;;;3.70;;
70205;SDS011;57593;55.896;37.396;2022-12-07T03:04:31;9.07;;;4.03;;
70205;SDS011;57593;55.896;37.396;2022-12-07T03:05:15;10.05;;;4.18;;
70205;SDS011;57593;55.896;37.396;2022-12-07T03:06:04;9.02;;;3.95;;
70205;SDS011;57593;55.896;37.396;2022-12-07T03:06:38;9.15;;;3.80;;
70205;SDS011;57593;55.896;37.396;2022-12-07T03:08:43;17.15;;;4.18;;
70205;SDS011;57593;55.896;37.396;2022-12-07T03:11:46;11.57;;;4.30;;
70205;SDS011;57593;55.896;37.396;2022-12-07T03:12:21;8.05;;;3.90;;
70205;SDS011;57593;55.896;37.396;2022-12-07T03:13:09;10.27;;;4.38;;
70205;SDS011;57593;55.896;37.396;2022-12-07T03:13:50;7.30;;;3.85;;
70205;SDS011;57593;55.896;37.396;2022-12-07T03:14:34;8.63;;;4.10;;
70205;SDS011;57593;55.896;37.396;2022-12-07T03:15:22;10.60;;;4.38;;
70205;SDS011;57593;55.896;37.396;2022-12-07T03:17:04;10.68;;;4.10;;
70205;SDS011;57593;55.896;37.396;2022-12-07T03:17:45;10.05;;;3.97;;
70205;SDS011;57593;55.896;37.396;2022-12-07T03:18:20;8.13;;;4.68;;
70205;SDS011;57593;55.896;37.396;2022-12-07T03:19:02;8.55;;;4.57;;
70205;SDS011;57593;55.896;37.396;2022-12-07T03:19:38;14.35;;;4.30;;
70205;SDS011;57593;55.896;37.396;2022-12-07T03:20:12;10.77;;;4.70;;
70205;SDS011;57593;55.896;37.396;2022-12-07T03:20:46;8.45;;;4.03;;
70205;SDS011;57593;55.896;37.396;2022-12-07T03:21:21;6.20;;;3.95;;
70205;SDS011;57593;55.896;37.396;2022-12-07T03:21:56;8.52;;;4.35;;
70205;SDS011;57593;55.896;37.396;2022-12-07T03:22:33;12.82;;;4.72;;
70205;SDS011;57593;55.896;37.396;2022-12-07T03:23:08;8.20;;;4.00;;
70205;SDS011;57593;55.896;37.396;2022-12-07T03:23:43;10.10;;;4.60;;
70205;SDS011;57593;55.896;37.396;2022-12-07T03:24:19;10.70;;;4.18;;
70205;SDS011;57593;55.896;37.396;2022-12-07T03:24:56;10.95;;;4.43;;
70205;SDS011;57593;55.896;37.396;2022-12-07T03:25:29;10.93;;;4.80;;
70205;SDS011;57593;55.896;37.396;2022-12-07T03:26:00;9.60;;;4.67;;
70205;SDS011;57593;55.896;37.396;2022-12-07T03:26:33;14.50;;;5.20;;
70205;SDS011;57593;55.896;37.396;2022-12-07T03:27:07;11.82;;;5.00;;
70205;SDS011;57593;55.896;37.396;2022-12-07T03:27:48;11.52;;;4.47;;
70205;SDS011;57593;55.896;37.396;2022-12-07T03:28:26;9.65;;;4.32;;
70205;SDS011;57593;55.896;37.396;2022-12-07T03:29:03;7.03;;;4.55;;
70205;SDS011;57593;55.896;37.396;2022-12-07T03:29:39;9.70;;;4.47;;
70205;SDS011;57593;55.896;37.396;2022-12-07T03:30:15;9.25;;;4.65;;
70205;SDS011;57593;55.896;37.396;2022-12-07T03:31:00;8.75;;;4.88;;
70205;SDS011;57593;55.896;37.396;2022-12-07T03:31:33;13.48;;;5.05;;
70205;SDS011;57593;55.896;37.396;2022-12-07T03:32:23;8.30;;;4.00;;
70205;SDS011;57593;55.896;37.396;2022-12-07T03:33:09;7.40;;;4.15;;
70205;SDS011;57593;55.896;37.396;2022-12-07T03:35:05;9.80;;;4.60;;
70205;SDS011;57593;55.896;37.396;2022-12-07T03:35:45;8.63;;;4.10;;
70205;SDS011;57593;55.896;37.396;2022-12-07T03:36:35;8.48;;;4.10;;
70205;SDS011;57593;55.896;37.396;2022-12-07T03:37:16;8.07;;;4.00;;
70205;SDS011;57593;55.896;37.396;2022-12-07T03:37:59;10.18;;;4.30;;
70205;SDS011;57593;55.896;37.396;2022-12-07T03:38:40;8.70;;;4.30;;
70205;SDS011;57593;55.896;37.396;2022-12-07T03:39:37;9.40;;;4.45;;
70205;SDS011;57593;55.896;37.396;2022-12-07T03:40:33;16.08;;;4.93;;
70205;SDS011;57593;55.896;37.396;2022-12-07T03:41:38;10.05;;;4.32;;
70205;SDS011;57593;55.896;37.396;2022-12-07T03:42:09;12.00;;;4.80;;
70205;SDS011;57593;55.896;37.396;2022-12-07T03:42:41;8.23;;;4.45;;
70205;SDS011;57593;55.896;37.396;2022-12-07T03:43:13;10.05;;;4.55;;
70205;SDS011;57593;55.896;37.396;2022-12-07T03:43:43;8.97;;;4.63;;
70205;SDS011;57593;55.896;37.396;2022-12-07T03:44:14;10.43;;;4.68;;
70205;SDS011;57593;55.896;37.396;2022-12-07T03:44:46;9.25;;;4.47;;
70205;SDS011;57593;55.896;37.396;2022-12-07T03:45:18;10.55;;;4.57;;
70205;SDS011;57593;55.896;37.396;2022-12-07T03:47:34;9.90;;;3.87;;
70205;SDS011;57593;55.896;37.396;2022-12-07T03:49:58;10.82;;;4.30;;
70205;SDS011;57593;55.896;37.396;2022-12-07T03:52:58;9.52;;;4.18;;
70205;SDS011;57593;55.896;37.396;2022-12-07T03:53:39;9.00;;;4.38;;
70205;SDS011;57593;55.896;37.396;2022-12-07T03:55:03;7.18;;;3.72;;
70205;SDS011;57593;55.896;37.396;2022-12-07T03:55:40;8.88;;;4.50;;
70205;SDS011;57593;55.896;37.396;2022-12-07T03:56:14;11.55;;;3.83;;
70205;SDS011;57593;55.896;37.396;2022-12-07T03:56:45;9.88;;;4.20;;
70205;SDS011;57593;55.896;37.396;2022-12-07T03:57:18;9.85;;;3.90;;